createdAt,value
2024-04-08T00:01:37.330Z,44.67
2024-04-08T00:04:45.634Z,43.31
2024-04-08T00:07:53.212Z,43.82
2024-04-08T00:11:09.392Z,43.26
2024-04-08T00:14:15.240Z,42.54
2024-04-08T00:17:23.847Z,42.29
2024-04-08T00:20:29.669Z,43.50
2024-04-08T00:23:38.903Z,46.73
2024-04-08T00:26:47.661Z,49.18
2024-04-08T00:29:56.794Z,47.25
2024-04-08T00:33:05.356Z,47.67
2024-04-08T00:36:10.882Z,45.89
2024-04-08T00:39:21.758Z,45.18
2024-04-08T00:42:30.271Z,45.87
2024-04-08T00:45:40.865Z,44.89
2024-04-08T00:48:48.316Z,44.80
2024-04-08T00:51:56.883Z,46.51
2024-04-08T00:55:02.529Z,45.19
2024-04-08T00:58:13.925Z,44.08
2024-04-08T01:01:20.764Z,44.73
2024-04-08T01:04:30.007Z,44.51
2024-04-08T01:07:36.164Z,44.21
2024-04-08T01:10:45.182Z,44.00
2024-04-08T01:13:54.042Z,43.93
2024-04-08T01:17:02.560Z,44.02
2024-04-08T01:20:09.143Z,44.51
2024-04-08T01:23:19.437Z,44.65
2024-04-08T01:26:27.989Z,44.65
2024-04-08T01:29:37.225Z,45.30
2024-04-08T01:32:45.882Z,46.48
2024-04-08T01:35:51.629Z,45.92
2024-04-08T01:39:00.220Z,46.10
2024-04-08T01:42:08.668Z,43.63
2024-04-08T01:45:17.391Z,46.18
2024-04-08T01:48:23.150Z,44.98
2024-04-08T01:51:31.482Z,46.97
2024-04-08T01:54:36.905Z,46.31
2024-04-08T01:57:50.337Z,46.74
2024-04-08T02:00:56.225Z,45.10
2024-04-08T02:04:04.555Z,46.23
2024-04-08T02:07:10.367Z,45.97
2024-04-08T02:10:19.619Z,46.26
2024-04-08T02:13:31.220Z,45.98
2024-04-08T02:16:37.585Z,46.94
2024-04-08T02:19:46.559Z,46.57
2024-04-08T02:22:52.553Z,46.43
2024-04-08T02:26:01.824Z,49.14
2024-04-08T02:29:12.716Z,46.55
2024-04-08T02:32:18.413Z,48.38
2024-04-08T02:35:27.261Z,47.84
2024-04-08T02:38:33.377Z,44.94
2024-04-08T02:41:41.980Z,46.25
2024-04-08T02:44:50.576Z,52.23
2024-04-08T02:48:01.554Z,47.81
2024-04-08T02:51:07.105Z,48.37
2024-04-08T02:54:15.645Z,47.27
2024-04-08T02:57:21.268Z,49.74
2024-04-08T03:00:32.496Z,45.94
2024-04-08T03:03:38.059Z,44.97
2024-04-08T03:06:46.530Z,45.30
2024-04-08T03:09:52.849Z,45.76
2024-04-08T03:13:01.534Z,44.85
2024-04-08T03:16:12.573Z,44.33
2024-04-08T03:19:21.221Z,44.86
2024-04-08T03:22:27.352Z,45.88
2024-04-08T03:25:35.919Z,45.70
2024-04-08T03:28:41.740Z,45.83
2024-04-08T03:31:52.901Z,46.43
2024-04-08T03:35:01.400Z,47.13
2024-04-08T03:38:10.220Z,45.42
2024-04-08T03:41:18.580Z,45.36
2024-04-08T03:44:27.384Z,46.88
2024-04-08T03:47:38.771Z,47.04
2024-04-08T03:50:47.209Z,45.46
2024-04-08T03:53:56.051Z,45.52
2024-04-08T03:57:01.391Z,47.38
2024-04-08T04:00:12.173Z,50.06
2024-04-08T04:03:20.421Z,51.38
2024-04-08T04:06:29.560Z,49.43
2024-04-08T04:09:38.156Z,46.00
2024-04-08T04:12:43.820Z,47.01
2024-04-08T04:15:52.588Z,46.02
2024-04-08T04:19:01.168Z,45.39
2024-04-08T04:22:09.661Z,45.89
2024-04-08T04:25:18.629Z,46.38
2024-04-08T04:28:24.244Z,44.90
2024-04-08T04:31:46.537Z,44.60
2024-04-08T04:35:13.959Z,46.54
2024-04-08T04:38:22.469Z,45.44
2024-04-08T04:41:30.600Z,47.85
2024-04-08T04:44:36.374Z,48.88
2024-04-08T04:47:45.389Z,45.79
2024-04-08T04:50:53.972Z,48.97
2024-04-08T04:54:02.413Z,47.89
2024-04-08T04:57:07.802Z,47.51
2024-04-08T05:00:17.600Z,43.03
2024-04-08T05:03:26.923Z,43.29
2024-04-08T05:06:35.029Z,42.04
2024-04-08T05:09:43.515Z,42.31
2024-04-08T05:12:49.115Z,40.16
2024-04-08T05:16:01.673Z,41.25
2024-04-08T05:19:07.514Z,43.05
2024-04-08T05:22:21.286Z,42.67
2024-04-08T05:25:27.045Z,44.54
2024-04-08T05:28:35.612Z,43.12
2024-04-08T05:31:41.756Z,43.41
2024-04-08T05:34:50.586Z,45.59
2024-04-08T05:37:59.478Z,44.08
2024-04-08T05:41:08.613Z,42.32
2024-04-08T05:44:14.645Z,42.59
2024-04-08T05:47:23.456Z,43.57
2024-04-08T05:50:31.991Z,45.92
2024-04-08T05:53:40.382Z,40.47
2024-04-08T05:56:48.809Z,42.86
2024-04-08T05:59:54.478Z,41.82
2024-04-08T06:03:02.758Z,42.40
2024-04-08T06:06:08.968Z,44.47
2024-04-08T06:09:20.156Z,42.04
2024-04-08T06:12:29.151Z,43.69
2024-04-08T06:15:35.349Z,40.91
2024-04-08T06:18:43.511Z,40.56
2024-04-08T06:21:53.443Z,41.77
2024-04-08T06:25:01.950Z,40.09
2024-04-08T06:28:10.305Z,39.07
2024-04-08T06:31:15.784Z,38.48
2024-04-08T06:34:24.528Z,38.67
2024-04-08T06:37:32.979Z,39.09
2024-04-08T06:40:45.046Z,40.41
2024-04-08T06:43:53.783Z,39.16
2024-04-08T06:46:59.841Z,40.06
2024-04-08T06:50:08.890Z,39.85
2024-04-08T06:53:14.523Z,40.86
2024-04-08T06:56:25.723Z,38.85
2024-04-08T06:59:34.227Z,38.22
2024-04-08T07:02:39.981Z,39.48
2024-04-08T07:05:50.355Z,40.76
2024-04-08T07:08:55.959Z,37.08
2024-04-08T07:12:07.089Z,37.85
2024-04-08T07:15:14.277Z,36.08
2024-04-08T07:18:22.687Z,36.42
2024-04-08T07:21:28.029Z,36.65
2024-04-08T07:24:36.376Z,34.46
2024-04-08T07:27:44.386Z,36.06
2024-04-08T07:30:52.581Z,36.38
2024-04-08T07:33:57.995Z,35.16
2024-04-08T07:37:06.428Z,34.52
2024-04-08T07:40:15.401Z,34.55
2024-04-08T07:43:26.565Z,36.35
2024-04-08T07:46:35.222Z,35.54
2024-04-08T07:49:41.287Z,32.72
2024-04-08T07:52:50.385Z,34.88
2024-04-08T07:55:56.144Z,34.31
2024-04-08T07:59:07.806Z,33.85
2024-04-08T08:02:13.378Z,33.26
2024-04-08T08:05:22.176Z,32.60
2024-04-08T08:08:30.792Z,31.99
2024-04-08T08:11:39.698Z,31.56
2024-04-08T08:14:50.708Z,31.50
2024-04-08T08:17:59.115Z,30.81
2024-04-08T08:21:08.350Z,28.29
2024-04-08T08:24:16.591Z,28.61
2024-04-08T08:27:24.889Z,29.13
2024-04-08T08:30:39.877Z,26.76
2024-04-08T08:33:48.287Z,27.45
2024-04-08T08:36:56.634Z,28.88
2024-04-08T08:40:05.073Z,27.34
2024-04-08T08:43:10.643Z,26.68
2024-04-08T08:46:25.125Z,25.48
2024-04-08T08:49:31.242Z,26.96
2024-04-08T08:52:39.994Z,27.03
2024-04-08T08:55:49.337Z,25.83
2024-04-08T08:58:59.117Z,26.36
2024-04-08T09:02:14.505Z,26.44
2024-04-08T09:05:20.159Z,25.79
2024-04-08T09:08:28.765Z,26.05
2024-04-08T09:11:37.325Z,25.31
2024-04-08T09:14:44.104Z,22.50
2024-04-08T09:17:54.961Z,24.46
2024-04-08T09:21:00.933Z,23.54
2024-04-08T09:24:10.319Z,23.71
2024-04-08T09:27:16.137Z,24.63
2024-04-08T09:30:24.779Z,23.70
2024-04-08T09:33:33.650Z,23.37
2024-04-08T09:36:43.407Z,22.34
2024-04-08T09:39:52.955Z,21.82
2024-04-08T09:43:02.496Z,21.72
2024-04-08T09:46:09.653Z,22.01
2024-04-08T09:49:25.900Z,21.62
2024-04-08T09:52:33.639Z,22.23
2024-04-08T09:55:47.583Z,22.45
2024-04-08T09:59:09.910Z,21.14
2024-04-08T10:02:17.210Z,21.07
2024-04-08T10:05:29.623Z,20.83
2024-04-08T10:08:35.497Z,22.73
2024-04-08T10:11:48.524Z,20.98
2024-04-08T10:14:57.184Z,21.42
2024-04-08T10:18:02.825Z,21.35
2024-04-08T10:21:14.126Z,20.81
2024-04-08T10:24:38.590Z,20.20
2024-04-08T10:27:48.256Z,20.18
2024-04-08T10:30:58.165Z,20.63
2024-04-08T10:34:06.265Z,20.76
2024-04-08T10:37:17.422Z,20.85
2024-04-08T10:40:24.298Z,19.78
2024-04-08T10:43:33.217Z,19.88
2024-04-08T10:46:38.982Z,19.59
2024-04-08T10:49:48.231Z,20.27
2024-04-08T10:52:57.104Z,18.67
2024-04-08T10:56:05.935Z,19.22
2024-04-08T10:59:11.593Z,17.97
2024-04-08T11:02:20.301Z,17.76
2024-04-08T11:05:27.312Z,18.78
2024-04-08T11:08:38.422Z,19.92
2024-04-08T11:11:47.881Z,18.92
2024-04-08T11:14:53.675Z,17.56
2024-04-08T11:18:03.117Z,17.11
2024-04-08T11:21:09.674Z,18.21
2024-04-08T11:24:20.980Z,18.17
2024-04-08T11:27:27.439Z,17.97
2024-04-08T11:30:39.677Z,18.91
2024-04-08T11:33:45.218Z,19.26
2024-04-08T11:36:53.489Z,17.61
2024-04-08T11:40:02.454Z,16.85
2024-04-08T11:43:11.070Z,16.07
2024-04-08T11:46:19.303Z,17.56
2024-04-08T11:49:28.186Z,16.89
2024-04-08T11:52:37.604Z,17.05
2024-04-08T11:55:46.463Z,16.11
2024-04-08T11:58:55.155Z,16.11
2024-04-08T12:02:00.712Z,15.88
2024-04-08T12:05:09.983Z,15.15
2024-04-08T12:08:18.708Z,15.73
2024-04-08T12:11:27.507Z,14.62
2024-04-08T12:14:35.966Z,14.72
2024-04-08T12:17:44.553Z,13.53
2024-04-08T12:20:50.150Z,14.35
2024-04-08T12:23:58.970Z,13.92
2024-04-08T12:27:10.120Z,14.03
2024-04-08T12:30:15.553Z,14.77
2024-04-08T12:33:24.214Z,14.01
2024-04-08T12:36:30.810Z,16.09
2024-04-08T12:39:39.964Z,15.35
2024-04-08T12:42:48.347Z,16.20
2024-04-08T12:45:56.823Z,15.39
2024-04-08T12:49:05.289Z,14.71
2024-04-08T12:52:11.232Z,14.82
2024-04-08T12:55:20.540Z,15.90
2024-04-08T12:58:29.416Z,15.05
2024-04-08T13:05:00.714Z,15.63
2024-04-08T13:08:11.637Z,13.74
2024-04-08T13:11:20.613Z,13.39
2024-04-08T13:14:32.264Z,13.35
2024-04-08T13:17:40.594Z,13.02
2024-04-08T13:20:49.637Z,13.68
2024-04-08T13:23:55.071Z,13.23
2024-04-08T13:27:03.756Z,13.26
2024-04-08T13:30:16.648Z,13.31
2024-04-08T13:33:22.375Z,13.50
2024-04-08T13:36:31.268Z,12.46
2024-04-08T13:39:42.931Z,12.18
2024-04-08T13:42:48.826Z,12.12
2024-04-08T13:46:00.645Z,12.00
2024-04-08T13:49:09.251Z,12.13
2024-04-08T13:52:17.797Z,12.88
2024-04-08T13:55:26.450Z,12.96
2024-04-08T13:58:32.067Z,12.55
2024-04-08T14:01:43.039Z,12.76
2024-04-08T14:04:51.342Z,14.02
2024-04-08T14:07:56.733Z,13.87
2024-04-08T14:11:05.228Z,14.71
2024-04-08T14:14:10.557Z,14.75
2024-04-08T14:17:21.673Z,13.59
2024-04-08T14:20:27.581Z,15.12
2024-04-08T14:23:36.237Z,14.83
2024-04-08T14:26:42.354Z,14.06
2024-04-08T14:29:55.824Z,12.76
2024-04-08T14:33:11.703Z,12.85
2024-04-08T14:36:17.308Z,13.06
2024-04-08T14:39:33.352Z,12.90
2024-04-08T14:42:43.702Z,14.09
2024-04-08T14:45:52.402Z,14.04
2024-04-08T14:49:00.865Z,14.18
2024-04-08T14:52:11.547Z,14.15
2024-04-08T14:55:20.002Z,14.58
2024-04-08T14:58:37.136Z,15.57
2024-04-08T15:01:52.502Z,15.29
2024-04-08T15:05:00.892Z,15.75
2024-04-08T15:08:09.751Z,16.92
2024-04-08T15:11:15.567Z,16.24
2024-04-08T15:14:24.504Z,17.17
2024-04-08T15:17:30.367Z,16.74
2024-04-08T15:20:41.418Z,17.18
2024-04-08T15:23:47.068Z,17.10
2024-04-08T15:26:55.256Z,16.34
2024-04-08T15:30:01.153Z,16.65
2024-04-08T15:33:09.905Z,16.95
2024-04-08T15:36:18.383Z,17.24
2024-04-08T15:39:27.123Z,16.63
2024-04-08T15:42:33.120Z,16.63
2024-04-08T15:45:41.842Z,16.25
2024-04-08T15:48:47.758Z,17.13
2024-04-08T15:52:01.063Z,16.80
2024-04-08T15:55:09.719Z,17.63
2024-04-08T15:58:16.284Z,17.11
2024-04-08T16:01:24.761Z,16.87
2024-04-08T16:04:30.882Z,17.79
2024-04-08T16:07:42.339Z,17.55
2024-04-08T16:10:50.033Z,17.51
2024-04-08T16:13:58.127Z,17.41
2024-04-08T16:17:05.114Z,17.63
2024-04-08T16:20:13.722Z,17.85
2024-04-08T16:23:33.387Z,17.30
2024-04-08T16:26:50.313Z,17.58
2024-04-08T16:29:56.290Z,17.66
2024-04-08T16:33:05.303Z,17.64
2024-04-08T16:36:11.347Z,17.32
2024-04-08T16:39:22.483Z,19.84
2024-04-08T16:42:28.284Z,20.69
2024-04-08T16:45:36.966Z,21.26
2024-04-08T16:48:45.731Z,22.57
2024-04-08T16:51:55.387Z,22.18
2024-04-08T16:55:03.752Z,22.47
2024-04-08T16:58:12.481Z,22.76
2024-04-08T17:01:20.828Z,22.46
2024-04-08T17:04:29.382Z,23.12
2024-04-08T17:07:36.574Z,23.65
2024-04-08T17:10:47.997Z,24.76
2024-04-08T17:13:57.449Z,24.40
2024-04-08T17:17:03.214Z,24.01
2024-04-08T17:20:13.028Z,25.53
2024-04-08T17:23:18.818Z,24.08
2024-04-08T17:26:30.015Z,24.70
2024-04-08T17:29:38.137Z,26.70
2024-04-08T17:32:46.643Z,24.67
2024-04-08T17:35:56.730Z,25.25
2024-04-08T17:39:06.023Z,24.87
2024-04-08T17:42:19.234Z,25.62
2024-04-08T17:45:26.448Z,28.07
2024-04-08T17:48:36.899Z,28.60
2024-04-08T17:51:42.922Z,28.65
2024-04-08T17:54:55.171Z,27.70
2024-04-08T17:58:03.486Z,27.53
2024-04-08T18:01:15.720Z,29.27
2024-04-08T18:04:25.866Z,28.82
2024-04-08T18:07:34.269Z,28.15
2024-04-08T18:10:41.557Z,27.33
2024-04-08T18:13:53.120Z,29.01
2024-04-08T18:16:58.852Z,29.14
2024-04-08T18:20:07.497Z,29.06
2024-04-08T18:23:13.552Z,29.71
2024-04-08T18:26:24.785Z,29.92
2024-04-08T18:29:33.941Z,29.88
2024-04-08T18:32:42.386Z,29.97
2024-04-08T18:35:50.972Z,30.10
2024-04-08T18:39:00.140Z,29.91
2024-04-08T18:42:06.301Z,30.69
2024-04-08T18:45:17.270Z,30.08
2024-04-08T18:48:23.388Z,30.96
2024-04-08T18:51:32.058Z,30.94
2024-04-08T18:54:44.510Z,31.02
2024-04-08T18:57:50.496Z,30.19
2024-04-08T19:01:07.483Z,30.07
2024-04-08T19:04:22.213Z,28.80
2024-04-08T19:07:28.693Z,27.65
2024-04-08T19:10:37.882Z,30.74
2024-04-08T19:13:47.802Z,30.44
2024-04-08T19:16:58.442Z,30.29
2024-04-08T19:20:07.877Z,32.14
2024-04-08T19:23:13.402Z,32.30
2024-04-08T19:26:21.881Z,33.35
2024-04-08T19:29:30.154Z,31.63
2024-04-08T19:32:39.070Z,31.41
2024-04-08T19:35:47.861Z,32.34
2024-04-08T19:38:55.846Z,32.46
2024-04-08T19:42:01.396Z,32.97
2024-04-08T19:45:19.108Z,33.19
2024-04-08T19:48:31.074Z,35.85
2024-04-08T19:51:39.866Z,34.16
2024-04-08T19:54:46.317Z,34.32
2024-04-08T19:57:54.482Z,34.22
2024-04-08T20:01:05.645Z,34.38
2024-04-08T20:04:20.258Z,34.06
2024-04-08T20:07:25.971Z,36.31
2024-04-08T20:10:36.854Z,35.01
2024-04-08T20:13:43.441Z,35.40
2024-04-08T20:16:52.342Z,37.97
2024-04-08T20:20:06.266Z,38.97
2024-04-08T20:23:12.067Z,38.12
2024-04-08T20:26:20.686Z,36.77
2024-04-08T20:29:26.553Z,36.51
2024-04-08T20:32:35.222Z,34.76
2024-04-08T20:35:43.511Z,38.02
2024-04-08T20:38:52.875Z,40.49
2024-04-08T20:41:58.770Z,39.40
2024-04-08T20:45:07.944Z,39.56
2024-04-08T20:48:14.215Z,37.24
2024-04-08T20:51:25.971Z,37.98
2024-04-08T20:54:34.290Z,37.05
2024-04-08T20:57:39.940Z,38.18
2024-04-08T21:00:49.048Z,35.88
2024-04-08T21:03:57.446Z,34.83
2024-04-08T21:07:08.593Z,36.07
2024-04-08T21:10:17.067Z,36.20
2024-04-08T21:13:22.958Z,37.52
2024-04-08T21:16:32.012Z,38.98
2024-04-08T21:19:37.893Z,38.49
2024-04-08T21:22:49.138Z,36.70
2024-04-08T21:25:55.108Z,35.91
2024-04-08T21:29:03.775Z,37.87
2024-04-08T21:32:09.880Z,39.21
2024-04-08T21:35:18.484Z,39.17
2024-04-08T21:38:27.908Z,36.90
2024-04-08T21:41:36.374Z,37.31
2024-04-08T21:44:42.290Z,36.95
2024-04-08T21:47:51.470Z,36.45
2024-04-08T21:50:59.253Z,37.38
2024-04-08T21:54:10.616Z,39.60
2024-04-08T21:57:16.477Z,42.65
2024-04-08T22:00:29.205Z,40.28
2024-04-08T22:03:35.563Z,40.45
2024-04-08T22:06:44.385Z,39.46
2024-04-08T22:09:55.463Z,37.78
2024-04-08T22:13:01.618Z,38.03
2024-04-08T22:16:10.896Z,37.70
2024-04-08T22:19:16.614Z,38.22
2024-04-08T22:22:24.961Z,37.76
2024-04-08T22:25:33.162Z,36.75
2024-04-08T22:28:41.678Z,36.60
2024-04-08T22:31:47.165Z,38.26
2024-04-08T22:34:55.834Z,39.78
2024-04-08T22:38:03.960Z,39.66
2024-04-08T22:41:18.607Z,38.20
2024-04-08T22:44:29.684Z,37.59
2024-04-08T22:47:38.523Z,38.01
2024-04-08T22:50:44.438Z,37.55
2024-04-08T22:53:52.851Z,37.66
2024-04-08T22:57:01.097Z,40.97
2024-04-08T23:00:10.967Z,41.91
2024-04-08T23:03:17.024Z,40.84
2024-04-08T23:06:25.872Z,43.24
2024-04-08T23:09:31.787Z,39.73
2024-04-08T23:12:46.416Z,41.95
2024-04-08T23:15:52.743Z,40.59
2024-04-08T23:19:01.611Z,43.71
2024-04-08T23:22:07.269Z,42.99
2024-04-08T23:25:15.592Z,41.64
2024-04-08T23:28:24.006Z,40.84
2024-04-08T23:31:32.778Z,41.80
2024-04-08T23:34:38.934Z,43.99
2024-04-08T23:37:47.758Z,39.63
2024-04-08T23:40:56.247Z,37.62
2024-04-08T23:44:06.356Z,41.11
2024-04-08T23:47:15.499Z,40.78
2024-04-08T23:50:21.172Z,40.99
2024-04-08T23:53:29.705Z,41.06
2024-04-08T23:56:35.680Z,39.71
2024-04-08T23:59:47.237Z,39.62
